Portada
METAR-TAF:

METAR-TAF

Aeroports :

Vadsø, Noruega

latitud: 70-04N, longitud: 029-51E, altitud: 3 m

Observació

L'informe es va fer fa 15 minuts, a les 14:50 UTC
Vent 15 kt del Oest
Temperatura -7°C
Humitat 79%
Pressió 980 hPa
Visibilitat 10 km o més
sense núvols per sota de 1500 mi sense presència de cumulonimbus.

METAR: ENVD 091450Z 27015KT CAVOK M07/M10 Q0980

Hora: 16:05 (15:05 UTC)

Pronòstic

L'informe es va fer fa 1 hora i 5 minuts, a les 14:00 UTC
Pronòstic vàlid del 09 a les 15 UTC al 09 a les 24 UTC
Vent 10 kt del Oest/Nord-Oest
Visibilitat 10 km o més
sense núvols per sota de 1500 mi sense presència de cumulonimbus.

TAF: ENVD 091400Z 0915/0924 29010KT CAVOK

Observacions i pronòstics meteorològics de més de 4000 aeroports (METAR i TAF).

Les estacions disponibles són els punts grocs i vermells al mapa.

Posi el ratolí al punt desitjat per veure el nom de l'estació.

Feu clic per veure les observacions i els pronòstics meteorològics.

Per canviar el mapa: feu clic els botons verds amb una creu de color negre per apropar; al botó verd amb un guió per allunyar la imatge; o en les fletxes verdes per a mapes adjacents.


METAR-TAF: